Lanark, Illinois
Current Conditions -  °F | °C
As of 4:35 AM on Tuesday 27 Jan 2015 (Local Time) from KSFY Reporting Station
Haze Haze  
Wind Chill: -2°   Ceiling: 4000
Heat Index: -2°   Visibility: 4mi
Dew Point: -3°   Wind: 3mph
Humidity: 92%   Direction: 330°NNW
Pressure: 30.02"   Gusts: NA
Location:  42.1°N, 89.83°W
Report Text: KSFY 271035Z AUTO 33003KT 4SM BR SCT011 OVC040 M02/M03 A3002 RMK AO2 T10161028
Loading
Personal Weather Stations






























Interactive Weather Map New forecast layout! Learn more

10-Day Weather Forecast

Advertisements
Track Severe Weather on mobile